Terminal Aerodrome Forecast
Issued by NWS

Home | Current Version | Previous Version | Text Only | Print | Product List | Glossary On
Versions: 1 2 3 4 5 6 7 8 9 10 11 12 13 14
000
FTUS43 KDTX 022142 AAB
TAFMBS
TAF AMD
KMBS 022142Z 0222/0318 22018G26KT P6SM SCT060 BKN150
     FM030000 22014G22KT P6SM BKN050 BKN120
      TEMPO 0300/0303 2SM TSRA BKN040CB OVC080
     FM030600 25010KT 6SM BR BKN030
     FM031200 29010KT P6SM SCT050=

USA.gov is the U.S. government's official web portal to all federal, state and local government web resources and services.